Time;durP1;ratioP1;P1;durP2;ratioP2;P2;SDS_P1;SDS_P2;PMS_P1;PMS_P2;Temp;Humidity;BMP_temperature;BMP_pressure;BME280_temperature;BME280_humidity;BME280_pressure;Samples;Min_cycle;Max_cycle;Signal;HPM_P1;HPM_P2
2023/03/10 00:01:28;;;;;;;6.13;1.20;;;6.20;99.90;;;;;;5035683;28;20135;-67
2023/03/10 00:03:55;;;;;;;11.05;2.35;;;6.30;99.90;;;;;;5036837;28;20513;-66
2023/03/10 00:06:25;;;;;;;8.85;1.50;;;6.30;99.90;;;;;;5042352;28;20056;-66
2023/03/10 00:08:52;;;;;;;3.92;0.90;;;6.20;99.90;;;;;;5042587;28;20045;-66
2023/03/10 00:11:17;;;;;;;3.70;1.20;;;6.20;99.90;;;;;;5043308;28;20400;-68
2023/03/10 00:13:43;;;;;;;5.10;1.30;;;6.20;99.90;;;;;;5038354;28;20036;-65
2023/03/10 00:16:19;;;;;;;6.72;1.35;;;6.20;99.90;;;;;;5035158;28;20091;-66
2023/03/10 00:18:45;;;;;;;2.80;1.08;;;6.20;99.90;;;;;;5025120;28;20037;-65
2023/03/10 00:21:21;;;;;;;4.35;1.00;;;6.20;99.90;;;;;;5041370;28;20531;-65
2023/03/10 00:23:47;;;;;;;11.00;1.20;;;6.20;99.90;;;;;;5025511;28;20048;-65
2023/03/10 00:26:18;;;;;;;3.50;1.15;;;6.10;99.90;;;;;;5029251;28;20045;-68
2023/03/10 00:28:44;;;;;;;3.55;1.05;;;6.20;99.90;;;;;;5036036;28;20080;-66
2023/03/10 00:31:13;;;;;;;8.77;1.42;;;6.20;99.90;;;;;;5019575;28;20069;-66
2023/03/10 00:33:39;;;;;;;6.93;1.20;;;6.20;99.90;;;;;;5003321;28;20430;-69
2023/03/10 00:36:11;;;;;;;4.72;1.30;;;6.20;99.90;;;;;;5009785;28;20486;-65
2023/03/10 00:38:37;;;;;;;5.30;1.23;;;6.30;99.90;;;;;;5005598;28;20128;-65
2023/03/10 00:41:09;;;;;;;5.15;1.15;;;6.30;99.90;;;;;;5010850;28;20703;-67
2023/03/10 00:43:35;;;;;;;3.05;0.82;;;6.30;99.90;;;;;;5035756;28;20506;-66
2023/03/10 00:46:01;;;;;;;5.07;1.20;;;6.30;99.90;;;;;;5010472;28;20056;-65
2023/03/10 00:48:28;;;;;;;6.28;1.40;;;6.30;99.90;;;;;;5006506;28;20034;-66
2023/03/10 00:50:53;;;;;;;4.13;1.20;;;6.30;99.90;;;;;;5010321;28;20113;-67
2023/03/10 00:53:19;;;;;;;3.65;1.23;;;6.30;99.90;;;;;;5004253;28;20042;-66
2023/03/10 00:55:58;;;;;;;4.32;1.00;;;6.30;99.90;;;;;;5007591;28;20612;-67
2023/03/10 00:58:24;;;;;;;5.75;1.30;;;6.30;99.90;;;;;;5003945;28;20120;-66
2023/03/10 01:00:49;;;;;;;6.28;1.75;;;6.20;99.90;;;;;;5011970;28;20037;-67
2023/03/10 01:03:15;;;;;;;9.95;1.58;;;6.30;99.90;;;;;;5007221;28;20046;-66
2023/03/10 01:05:40;;;;;;;6.18;1.08;;;6.30;99.90;;;;;;5028112;28;20461;-66
2023/03/10 01:08:06;;;;;;;3.42;0.98;;;6.30;99.90;;;;;;5021457;28;20033;-66
2023/03/10 01:10:32;;;;;;;2.45;1.02;;;6.40;99.90;;;;;;5022001;28;20033;-65
2023/03/10 01:12:57;;;;;;;4.03;1.00;;;6.40;99.90;;;;;;5005181;28;20058;-65
2023/03/10 01:15:23;;;;;;;5.30;0.65;;;6.40;99.90;;;;;;5012385;28;20124;-67
2023/03/10 01:17:49;;;;;;;3.60;1.15;;;6.40;99.90;;;;;;5006841;28;20066;-67
2023/03/10 01:20:15;;;;;;;2.15;0.80;;;6.40;99.90;;;;;;5017655;28;20037;-67
2023/03/10 01:22:42;;;;;;;1.95;0.93;;;6.50;99.90;;;;;;5008799;28;20070;-67
2023/03/10 01:25:13;;;;;;;1.60;0.70;;;6.50;99.90;;;;;;5016115;28;20132;-67
2023/03/10 01:27:39;;;;;;;2.35;0.80;;;6.40;99.90;;;;;;5008650;28;20046;-67
2023/03/10 01:30:05;;;;;;;3.03;0.70;;;6.40;99.90;;;;;;5008120;28;20046;-66
2023/03/10 01:32:31;;;;;;;3.25;0.75;;;6.40;99.90;;;;;;5024763;28;20041;-66
2023/03/10 01:34:56;;;;;;;1.10;0.50;;;6.50;99.90;;;;;;5026560;28;20405;-67
2023/03/10 01:37:23;;;;;;;4.47;0.68;;;6.50;99.90;;;;;;5028342;28;20076;-67
2023/03/10 01:39:49;;;;;;;3.13;0.73;;;6.50;99.90;;;;;;5027716;28;20094;-67
2023/03/10 01:42:14;;;;;;;2.25;0.80;;;6.50;99.90;;;;;;5028424;28;20602;-66
2023/03/10 01:44:40;;;;;;;;;;;6.60;99.90;;;;;;5025892;28;20045;-67
2023/03/10 01:47:05;;;;;;;3.63;0.47;;;6.50;99.90;;;;;;5027336;28;19925;-67
2023/03/10 01:49:44;;;;;;;1.80;0.57;;;6.50;99.90;;;;;;5027501;28;20112;-67
2023/03/10 01:52:16;;;;;;;0.95;0.40;;;6.60;99.90;;;;;;5020277;28;20128;-67
2023/03/10 01:54:48;;;;;;;2.03;0.50;;;6.60;99.90;;;;;;5025663;28;20053;-67
2023/03/10 01:57:17;;;;;;;1.95;0.50;;;6.60;99.90;;;;;;5027023;28;20116;-66
2023/03/10 01:59:44;;;;;;;3.75;0.50;;;6.70;99.90;;;;;;5023391;28;20502;-67
2023/03/10 02:02:10;;;;;;;4.57;1.52;;;6.80;99.90;;;;;;5024651;28;20060;-67
2023/03/10 02:04:41;;;;;;;2.08;0.85;;;6.80;99.90;;;;;;5024217;28;20053;-67
2023/03/10 02:07:08;;;;;;;1.48;0.40;;;6.80;99.90;;;;;;5026108;28;20474;-67
2023/03/10 02:09:39;;;;;;;0.88;0.55;;;6.80;99.90;;;;;;5025507;28;20517;-67
2023/03/10 02:12:06;;;;;;;0.77;0.30;;;6.80;99.90;;;;;;5027109;28;20072;-65
2023/03/10 02:14:34;;;;;;;2.20;0.60;;;6.80;99.90;;;;;;5025480;28;20497;-66
2023/03/10 02:17:01;;;;;;;0.45;0.35;;;6.80;99.90;;;;;;5025221;28;20042;-66
2023/03/10 02:19:46;;;;;;;2.25;0.60;;;6.80;99.90;;;;;;5025501;28;20057;-65
2023/03/10 02:22:14;;;;;;;3.72;0.55;;;6.90;99.90;;;;;;5026919;28;20111;-65
2023/03/10 02:24:51;;;;;;;1.42;0.40;;;6.90;99.90;;;;;;5024054;28;20041;-66
2023/03/10 02:27:18;;;;;;;0.80;0.40;;;6.90;99.90;;;;;;5026820;28;20386;-65
2023/03/10 02:29:58;;;;;;;1.02;0.50;;;7.00;99.90;;;;;;5021373;28;20517;-65
2023/03/10 02:32:24;;;;;;;1.70;0.60;;;6.90;99.90;;;;;;5024671;28;20068;-66
2023/03/10 02:34:50;;;;;;;1.33;0.47;;;7.00;99.90;;;;;;5023394;28;20064;-65
2023/03/10 02:37:21;;;;;;;0.52;0.35;;;7.00;99.90;;;;;;5026365;28;20135;-65
2023/03/10 02:39:47;;;;;;;1.13;0.35;;;7.00;99.90;;;;;;5024470;28;20048;-66
2023/03/10 02:42:13;;;;;;;0.82;0.52;;;7.00;99.90;;;;;;5027271;28;20038;-65
2023/03/10 02:44:39;;;;;;;1.75;0.35;;;7.00;99.90;;;;;;5024149;28;20041;-67
2023/03/10 02:47:05;;;;;;;0.60;0.40;;;7.00;99.90;;;;;;5025787;28;20051;-67
2023/03/10 02:49:34;;;;;;;2.72;0.45;;;7.00;99.90;;;;;;5026447;28;20060;-68
2023/03/10 02:52:03;;;;;;;0.40;0.30;;;7.00;99.90;;;;;;5025915;28;20521;-66
2023/03/10 02:54:29;;;;;;;0.98;0.43;;;7.00;99.90;;;;;;5023127;28;20079;-66
2023/03/10 02:56:54;;;;;;;1.75;0.45;;;7.00;99.90;;;;;;5026551;28;20420;-66
2023/03/10 02:59:20;;;;;;;1.73;0.70;;;6.90;99.90;;;;;;5020839;28;20056;-65
2023/03/10 03:01:46;;;;;;;0.90;0.40;;;;;;;;;;5024691;28;20562;-66
2023/03/10 03:04:12;;;;;;;0.50;0.40;;;;;;;;;;5023818;28;20211;-65
2023/03/10 03:06:39;;;;;;;1.20;0.45;;;;;;;;;;5025647;28;20065;-65
2023/03/10 03:09:06;;;;;;;2.65;0.93;;;;;;;;;;5025190;28;20033;-65
2023/03/10 03:11:32;;;;;;;1.17;0.40;;;;;;;;;;5026733;28;20639;-65
2023/03/10 03:13:58;;;;;;;2.33;0.40;;;;;;;;;;5023765;28;20041;-66
2023/03/10 03:16:24;;;;;;;1.00;0.50;;;;;;;;;;5026879;28;20145;-66
2023/03/10 03:18:50;;;;;;;2.40;0.43;;;;;;;;;;5024034;28;20669;-65
2023/03/10 03:21:16;;;;;;;2.53;0.40;;;;;;;;;;5027314;28;20041;-65
2023/03/10 03:23:43;;;;;;;1.25;0.50;;;;;;;;;;5022096;28;20041;-66
2023/03/10 03:26:14;;;;;;;0.73;0.60;;;;;;;;;;5029835;28;20042;-67
2023/03/10 03:28:40;;;;;;;1.67;0.50;;;;;;;;;;5021270;28;20041;-67
2023/03/10 03:31:06;;;;;;;0.88;0.50;;;;;;;;;;5027769;28;20442;-66
2023/03/10 03:33:33;;;;;;;0.50;0.30;;;;;;;;;;5023213;28;20041;-66
2023/03/10 03:35:59;;;;;;;1.05;0.55;;;;;;;;;;5027880;28;20068;-67
2023/03/10 03:38:25;;;;;;;1.58;0.50;;;;;;;;;;5024911;28;20045;-67
2023/03/10 03:40:51;;;;;;;1.20;0.50;;;;;;;;;;5028103;28;20448;-67
2023/03/10 03:43:17;;;;;;;1.48;0.47;;;;;;;;;;5023077;28;20041;-66
2023/03/10 03:45:43;;;;;;;1.25;0.30;;;;;;;;;;5027324;28;20049;-66
2023/03/10 03:48:09;;;;;;;0.90;0.20;;;;;;;;;;5023063;28;20411;-66
2023/03/10 03:50:35;;;;;;;1.05;0.50;;;;;;;;;;5027336;28;20049;-64
2023/03/10 03:53:01;;;;;;;0.55;0.10;;;;;;;;;;5021548;28;20700;-65
2023/03/10 03:55:28;;;;;;;0.10;0.10;;;;;;;;;;5030162;28;20042;-66
2023/03/10 03:57:54;;;;;;;0.93;0.13;;;;;;;;;;5028276;28;20944;-66
2023/03/10 04:00:21;;;;;;;0.40;0.20;;;;;;;;;;5029987;28;20118;-68
2023/03/10 04:02:47;;;;;;;0.10;0.10;;;;;;;;;;5043584;28;20079;-65
2023/03/10 04:05:13;;;;;;;0.10;0.10;;;;;;;;;;5030019;28;20484;-65
2023/03/10 04:07:40;;;;;;;0.10;0.10;;;;;;;;;;5027637;28;20041;-66
2023/03/10 04:10:07;;;;;;;0.32;0.10;;;;;;;;;;5030834;28;20120;-65
2023/03/10 04:12:33;;;;;;;0.10;0.10;;;;;;;;;;5029219;28;20037;-66
2023/03/10 04:14:59;;;;;;;0.52;0.20;;;;;;;;;;5027620;28;20034;-66
2023/03/10 04:17:25;;;;;;;0.30;0.20;;;;;;;;;;5028817;28;20064;-65
2023/03/10 04:19:51;;;;;;;0.20;0.10;;;;;;;;;;5024636;28;20053;-65
2023/03/10 04:22:17;;;;;;;0.25;0.10;;;;;;;;;;5025751;28;20544;-65
2023/03/10 04:24:43;;;;;;;0.38;0.10;;;;;;;;;;5027231;28;20045;-66
2023/03/10 04:27:10;;;;;;;2.22;0.10;;;;;;;;;;5027385;28;20045;-68
2023/03/10 04:29:36;;;;;;;0.30;0.30;;;;;;;;;;5027781;28;20060;-66
2023/03/10 04:32:03;;;;;;;2.15;0.10;;;;;;;;;;5028500;28;20577;-66
2023/03/10 04:34:29;;;;;;;0.40;0.20;;;;;;;;;;5027463;28;20045;-67
2023/03/10 04:36:55;;;;;;;0.30;0.10;;;;;;;;;;5029262;28;20041;-64
2023/03/10 04:39:21;;;;;;;0.52;0.25;;;;;;;;;;5028513;28;20101;-64
2023/03/10 04:41:47;;;;;;;0.85;0.20;;;;;;;;;;5028991;28;20041;-64
2023/03/10 04:44:13;;;;;;;0.25;0.22;;;;;;;;;;5027301;28;20112;-65
2023/03/10 04:46:39;;;;;;;0.43;0.30;;;;;;;;;;5028585;28;20080;-65
2023/03/10 04:49:05;;;;;;;1.75;0.38;;;;;;;;;;5029098;28;20076;-64
2023/03/10 04:51:31;;;;;;;1.45;0.40;;;;;;;;;;5028591;28;20782;-65
2023/03/10 04:53:59;;;;;;;1.27;0.20;;;;;;;;;;5041306;28;20095;-64
2023/03/10 04:56:25;;;;;;;2.33;0.50;;;;;;;;;;5029287;28;20133;-65
2023/03/10 04:58:51;;;;;;;0.40;0.20;;;;;;;;;;5022904;28;20038;-64
2023/03/10 05:01:17;;;;;;;1.50;0.20;;;;;;;;;;5028966;28;20053;-64
2023/03/10 05:03:43;;;;;;;1.02;0.30;;;;;;;;;;5022717;28;20064;-65
2023/03/10 05:06:16;;;;;;;1.98;0.30;;;;;;;;;;5029859;28;20068;-65
2023/03/10 05:08:42;;;;;;;1.45;0.40;;;;;;;;;;5026419;28;20164;-65
2023/03/10 05:11:08;;;;;;;3.88;0.38;;;;;;;;;;5029525;28;20061;-66
2023/03/10 05:13:35;;;;;;;0.60;0.40;;;;;;;;;;5024193;28;20547;-66
2023/03/10 05:16:01;;;;;;;0.88;0.50;;;;;;;;;;5028160;28;20046;-66
2023/03/10 05:18:27;;;;;;;1.15;0.50;;;;;;;;;;5024231;28;20049;-66
2023/03/10 05:20:54;;;;;;;1.85;0.30;;;;;;;;;;5029728;28;20041;-66
2023/03/10 05:23:20;;;;;;;0.43;0.20;;;;;;;;;;5023789;28;20041;-65
2023/03/10 05:25:47;;;;;;;2.95;0.30;;;;;;;;;;5029636;28;20077;-66
2023/03/10 05:28:13;;;;;;;3.22;0.28;;;;;;;;;;5024329;28;20030;-66
2023/03/10 05:30:39;;;;;;;0.95;0.20;;;;;;;;;;5025237;28;20382;-65
2023/03/10 05:33:05;;;;;;;2.15;0.20;;;;;;;;;;5025050;28;20071;-66
2023/03/10 05:35:31;;;;;;;3.72;0.38;;;;;;;;;;5028612;28;20045;-65
2023/03/10 05:37:57;;;;;;;0.73;0.20;;;;;;;;;;5026132;28;20034;-65
2023/03/10 05:40:23;;;;;;;1.73;0.30;;;;;;;;;;5027743;28;20046;-65
2023/03/10 05:42:50;;;;;;;0.52;0.20;;;;;;;;;;5021934;28;20415;-66
2023/03/10 05:45:16;;;;;;;2.38;0.28;;;;;;;;;;5028757;28;20448;-66
2023/03/10 05:47:45;;;;;;;0.28;0.13;;;;;;;;;;5026330;28;20485;-66
2023/03/10 05:50:13;;;;;;;2.08;0.35;;;;;;;;;;5029800;28;20037;-66
2023/03/10 05:52:39;;;;;;;0.82;0.35;;;;;;;;;;5024051;28;20069;-66
2023/03/10 05:55:06;;;;;;;1.13;0.22;;;;;;;;;;5027729;28;20037;-66
2023/03/10 05:57:32;;;;;;;1.20;0.47;;;;;;;;;;5025052;28;20044;-65
2023/03/10 05:59:58;;;;;;;3.72;0.60;;;;;;;;;;5024473;28;20064;-66
2023/03/10 06:02:24;;;;;;;2.20;0.47;;;;;;;;;;5025358;28;20087;-66
2023/03/10 06:04:50;;;;;;;3.45;0.52;;;;;;;;;;5026151;28;20401;-66
2023/03/10 06:07:17;;;;;;;2.55;0.52;;;;;;;;;;5026686;28;20045;-66
2023/03/10 06:09:43;;;;;;;3.20;0.60;;;;;;;;;;5026063;28;20097;-66
2023/03/10 06:12:09;;;;;;;5.63;0.70;;;;;;;;;;5028465;28;20045;-65
2023/03/10 06:14:37;;;;;;;3.13;0.80;;;;;;;;;;5022205;28;20045;-66
2023/03/10 06:17:03;;;;;;;7.32;0.90;;;;;;;;;;5025133;28;20041;-66
2023/03/10 06:19:29;;;;;;;3.55;1.02;;;;;;;;;;5024923;28;20060;-64
2023/03/10 06:21:55;;;;;;;7.03;1.25;;;;;;;;;;5025944;28;20037;-64
2023/03/10 06:24:21;;;;;;;3.40;1.10;;;;;;;;;;5024057;28;20140;-66
2023/03/10 06:26:47;;;;;;;2.50;0.70;;;;;;;;;;5026269;28;20204;-65
2023/03/10 06:29:13;;;;;;;2.35;0.77;;;;;;;;;;5036514;28;20034;-66
2023/03/10 06:31:39;;;;;;;6.47;0.90;;;;;;;;;;5024959;28;20128;-65
2023/03/10 06:34:08;;;;;;;7.22;1.30;;;;;;;;;;5039998;28;20037;-67
2023/03/10 06:36:36;;;;;;;4.47;1.40;;;;;;;;;;5025078;28;20908;-65
2023/03/10 06:39:02;;;;;;;4.88;1.02;;;;;;;;;;5024963;28;20497;-65
2023/03/10 06:41:28;;;;;;;9.77;1.25;;;;;;;;;;5026333;28;20068;-66
2023/03/10 06:43:54;;;;;;;3.83;0.93;;;;;;;;;;5026007;28;20128;-65
2023/03/10 06:46:20;;;;;;;8.30;1.50;;;;;;;;;;5025798;28;20199;-65
2023/03/10 06:48:46;;;;;;;12.30;1.88;;;;;;;;;;5025089;28;20100;-66
2023/03/10 06:51:14;;;;;;;6.82;1.52;;;;;;;;;;5027559;28;20039;-66
2023/03/10 06:53:40;;;;;;;8.38;1.92;;;;;;;;;;5019876;28;20049;-65
2023/03/10 06:56:08;;;;;;;7.03;2.15;;;;;;;;;;5027224;28;20048;-66
2023/03/10 06:58:35;;;;;;;8.23;1.92;;;;;;;;;;5019757;28;20041;-64
2023/03/10 07:01:01;;;;;;;6.80;2.15;;;;;;;;;;5025801;28;20038;-66
2023/03/10 07:03:27;;;;;;;8.75;2.22;;;;;;;;;;5023998;28;20033;-64
2023/03/10 07:05:54;;;;;;;8.35;2.20;;;;;;;;;;5027637;28;20049;-67
2023/03/10 07:08:20;;;;;;;6.20;2.05;;;;;;;;;;5020055;28;20037;-65
2023/03/10 07:10:47;;;;;;;11.13;2.60;;;;;;;;;;5028649;28;20037;-66
2023/03/10 07:13:14;;;;;;;9.82;2.35;;;;;;;;;;5040542;28;20045;-65
2023/03/10 07:15:41;;;;;;;6.85;2.33;;;;;;;;;;5026732;28;20130;-65
2023/03/10 07:18:07;;;;;;;8.25;2.20;;;;;;;;;;5022454;28;20038;-65
2023/03/10 07:20:33;;;;;;;10.02;2.00;;;;;;;;;;5026138;28;20382;-65
2023/03/10 07:22:59;;;;;;;13.05;2.10;;;;;;;;;;5024137;28;20070;-64
2023/03/10 07:25:25;;;;;;;8.10;1.75;;;;;;;;;;5027159;28;20045;-64
2023/03/10 07:27:51;;;;;;;6.50;1.75;;;;;;;;;;5022843;28;20065;-65
2023/03/10 07:30:17;;;;;;;10.15;1.92;;;;;;;;;;5027457;28;20045;-66
2023/03/10 07:32:43;;;;;;;10.38;1.92;;;;;;;;;;5025339;28;20065;-65
2023/03/10 07:35:09;;;;;;;6.32;2.05;;;;;;;;;;5025955;28;20528;-64
2023/03/10 07:37:39;;;;;;;6.18;1.77;;;;;;;;;;5027786;28;20080;-65
2023/03/10 07:40:07;;;;;;;5.32;1.98;;;;;;;;;;5031393;28;20042;-65
2023/03/10 07:42:33;;;;;;;7.05;1.70;;;;;;;;;;5027744;28;20037;-64
2023/03/10 07:44:59;;;;;;;6.57;1.45;;;;;;;;;;5029689;28;20547;-66
2023/03/10 07:47:25;;;;;;;6.05;1.95;;;;;;;;;;5029160;28;20053;-65
2023/03/10 07:49:51;;;;;;;;;;;;;;;;;;5028730;28;20050;-65
2023/03/10 07:52:18;;;;;;;2.63;1.20;;;;;;;;;;5060603;28;19993;-65
2023/03/10 07:54:44;;;;;;;6.53;1.15;;;;;;;;;;5027306;28;20041;-64
2023/03/10 07:57:11;;;;;;;3.15;1.15;;;;;;;;;;5029163;28;20382;-65
2023/03/10 07:59:38;;;;;;;5.70;1.27;;;;;;;;;;5025164;28;20108;-66
2023/03/10 08:02:04;;;;;;;1.95;0.63;;;;;;;;;;5027855;28;20085;-65
2023/03/10 08:04:30;;;;;;;3.10;0.90;;;;;;;;;;5026141;28;20045;-66
2023/03/10 08:06:56;;;;;;;2.78;1.00;;;;;;;;;;5028539;28;20041;-65
2023/03/10 08:09:22;;;;;;;;;;;;;;;;;;5027048;28;20079;-65
2023/03/10 08:11:48;;;;;;;0.80;0.57;;;;;;;;;;5029882;28;20309;-65
2023/03/10 08:14:17;;;;;;;2.40;0.90;;;;;;;;;;5027104;28;20030;-66
2023/03/10 08:16:43;;;;;;;1.30;0.70;;;;;;;;;;5029984;28;20081;-65
2023/03/10 08:19:09;;;;;;;;;;;;;;;;;;5026426;28;20060;-64
2023/03/10 08:21:35;;;;;;;1.65;0.57;;;;;;;;;;5028445;28;20024;-64
2023/03/10 08:24:01;;;;;;;;;;;;;;;;;;5026744;28;20041;-64
2023/03/10 08:26:27;;;;;;;2.55;0.80;;;;;;;;;;5028929;28;20013;-63
2023/03/10 08:28:53;;;;;;;;;;;;;;;;;;5023494;28;20048;-64
2023/03/10 08:31:20;;;;;;;1.50;0.60;;;;;;;;;;5028664;28;19920;-64
2023/03/10 08:33:46;;;;;;;1.30;0.50;;;;;;;;;;5024151;28;20513;-64
2023/03/10 08:36:17;;;;;;;0.88;0.40;;;;;;;;;;5030036;28;20080;-65
2023/03/10 08:38:44;;;;;;;0.90;0.50;;;;;;;;;;5023828;28;20042;-63
2023/03/10 08:41:21;;;;;;;1.15;0.40;;;;;;;;;;5022120;28;20441;-63
2023/03/10 08:43:47;;;;;;;1.00;0.40;;;;;;;;;;5024546;28;20041;-62
2023/03/10 08:46:14;;;;;;;1.00;0.40;;;;;;;;;;5029638;28;20033;-62
2023/03/10 08:48:40;;;;;;;1.20;0.40;;;;;;;;;;5025464;28;20033;-63
2023/03/10 08:51:06;;;;;;;2.65;0.30;;;;;;;;;;5029669;28;20160;-63
2023/03/10 08:53:33;;;;;;;1.55;0.73;;;;;;;;;;5024623;28;20650;-64
2023/03/10 08:55:59;;;;;;;1.17;0.40;;;;;;;;;;5029446;28;20045;-64
2023/03/10 08:58:26;;;;;;;0.75;0.30;;;;;;;;;;5026968;28;20156;-64
2023/03/10 09:00:52;;;;;;;2.05;0.50;;;;;;;;;;5026086;28;20442;-64
2023/03/10 09:03:18;;;;;;;0.28;0.20;;;;;;;;;;5039586;28;20116;-64
2023/03/10 09:05:45;;;;;;;1.45;0.40;;;;;;;;;;5029421;28;20072;-64
2023/03/10 09:08:11;;;;;;;3.15;1.15;;;;;;;;;;5040634;28;20044;-64
2023/03/10 09:10:37;;;;;;;1.33;0.70;;;;;;;;;;5029012;28;20099;-65
2023/03/10 09:13:03;;;;;;;1.55;0.30;;;;;;;;;;5026304;28;20076;-64
2023/03/10 09:15:29;;;;;;;3.50;0.43;;;;;;;;;;5028524;28;20124;-64
2023/03/10 09:17:55;;;;;;;0.50;0.40;;;;;;;;;;5024663;28;20091;-65
2023/03/10 09:20:24;;;;;;;;;;;;;;;;;;5029470;28;20517;-62
2023/03/10 09:22:51;;;;;;;0.95;0.35;;;;;;;;;;5025674;28;19944;-63
2023/03/10 09:25:17;;;;;;;2.05;0.40;;;;;;;;;;5028384;28;20535;-65
2023/03/10 09:27:43;;;;;;;;;;;;;;;;;;5024395;28;20045;-61
2023/03/10 09:30:10;;;;;;;0.43;0.28;;;;;;;;;;5026393;28;20320;-57
2023/03/10 09:32:36;;;;;;;0.40;0.30;;;;;;;;;;5012189;28;20044;-63
2023/03/10 09:35:02;;;;;;;0.38;0.30;;;;;;;;;;5008452;28;20041;-62
2023/03/10 09:37:28;;;;;;;2.47;0.95;;;;;;;;;;5007145;28;20041;-63
2023/03/10 09:39:54;;;;;;;;;;;;;;;;;;5007990;28;20585;-62
2023/03/10 09:42:32;;;;;;;4.07;0.60;;;;;;;;;;5007096;28;19918;-65
2023/03/10 09:45:07;;;;;;;2.97;0.65;;;;;;;;;;5007128;28;20806;-65
2023/03/10 09:47:41;;;;;;;3.40;0.75;;;;;;;;;;5004712;28;20037;-63
2023/03/10 09:50:19;;;;;;;4.88;1.45;;;;;;;;;;5004146;28;20034;-67
2023/03/10 09:52:46;;;;;;;6.15;0.80;;;;;;;;;;5005897;28;20057;-64
2023/03/10 09:55:12;;;;;;;2.15;0.70;;;;;;;;;;5006580;28;20041;-65
2023/03/10 09:57:38;;;;;;;4.95;0.63;;;;;;;;;;5005706;28;20060;-65
2023/03/10 10:00:08;;;;;;;4.68;0.90;;;;;;;;;;5007258;28;20065;-64
2023/03/10 10:02:36;;;;;;;3.45;0.98;;;;;;;;;;5030145;28;20037;-64
2023/03/10 10:05:03;;;;;;;6.00;1.60;;;;;;;;;;5031920;28;20044;-65
2023/03/10 10:07:37;;;;;;;3.55;1.25;;;;;;;;;;5030591;28;20075;-64
2023/03/10 10:10:24;;;;;;;3.75;1.10;;;;;;;;;;5028114;28;20164;-65
2023/03/10 10:12:52;;;;;;;9.55;1.90;;;;;;;;;;5022745;28;20092;-65
2023/03/10 10:15:21;;;;;;;5.00;1.00;;;;;;;;;;5026047;28;20041;-65
2023/03/10 10:17:59;;;;;;;9.23;3.20;;;;;;;;;;5022715;28;20046;-65
2023/03/10 10:20:27;;;;;;;7.45;1.95;;;;;;;;;;5028122;28;20049;-65
2023/03/10 10:22:53;;;;;;;4.65;1.67;;;;;;;;;;5022945;28;20089;-65
2023/03/10 10:25:21;;;;;;;7.30;1.48;;;;;;;;;;5028071;28;20033;-64
2023/03/10 10:27:50;;;;;;;4.40;1.50;;;;;;;;;;5022659;28;20049;-64
2023/03/10 10:30:28;;;;;;;6.70;1.35;;;;;;;;;;5025946;28;20084;-65
2023/03/10 10:32:56;;;;;;;6.25;1.27;;;;;;;;;;5002157;28;20066;-65
2023/03/10 10:35:24;;;;;;;8.20;2.25;;;;;;;;;;5004650;28;20049;-65
2023/03/10 10:37:58;;;;;;;9.18;1.80;;;;;;;;;;5003935;28;20391;-64
2023/03/10 10:40:25;;;;;;;8.43;1.67;;;;;;;;;;5004965;28;20061;-64
2023/03/10 10:42:53;;;;;;;6.65;1.40;;;;;;;;;;5002548;28;20049;-63
2023/03/10 10:45:32;;;;;;;5.03;1.38;;;;;;;;;;5005215;28;20096;-65
2023/03/10 10:47:58;;;;;;;5.15;1.30;;;;;;;;;;5002691;28;20130;-64
2023/03/10 10:50:30;;;;;;;4.85;1.30;;;;;;;;;;5007649;28;20535;-65
2023/03/10 10:53:35;;;;;;;8.50;2.08;;;;;;;;;;5003701;28;20046;-65
2023/03/10 10:56:04;;;;;;;7.90;1.88;;;;;;;;;;4959548;28;20518;-65
2023/03/10 10:58:30;;;;;;;6.20;1.63;;;;;;;;;;4945034;28;20074;-64
2023/03/10 11:00:58;;;;;;;4.82;1.85;;;;;;;;;;4984048;28;20041;-63
2023/03/10 11:03:29;;;;;;;8.77;1.50;;;;;;;;;;5000079;28;20056;-64
2023/03/10 11:05:55;;;;;;;5.80;1.60;;;;;;;;;;5011656;28;20044;-64
2023/03/10 11:08:38;;;;;;;7.20;1.50;;;;;;;;;;5009857;28;20688;-64
2023/03/10 11:11:13;;;;;;;6.70;1.17;;;;;;;;;;5014401;28;20050;-64
2023/03/10 11:13:54;;;;;;;3.45;1.20;;;;;;;;;;5010164;28;20069;-64
2023/03/10 11:16:25;;;;;;;6.45;1.33;;;;;;;;;;5012978;28;20034;-63
2023/03/10 11:19:01;;;;;;;6.47;1.20;;;;;;;;;;5010091;28;20034;-65
2023/03/10 11:21:35;;;;;;;6.72;1.40;;;;;;;;;;5004508;28;20042;-64
2023/03/10 11:24:11;;;;;;;6.88;1.13;;;;;;;;;;5039807;28;20077;-65
2023/03/10 11:26:57;;;;;;;7.28;1.17;;;;;;;;;;5011173;28;20092;-63
2023/03/10 11:29:42;;;;;;;4.07;1.65;;;;;;;;;;5010961;28;20071;-65
2023/03/10 11:32:18;;;;;;;1.42;0.60;;;;;;;;;;5013333;28;20121;-62
2023/03/10 11:34:52;;;;;;;5.22;1.00;;;;;;;;;;5003790;28;20050;-66
2023/03/10 11:37:45;;;;;;;3.03;1.02;;;;;;;;;;5004890;28;20054;-66
2023/03/10 11:40:23;;;;;;;4.25;1.00;;;;;;;;;;4973578;28;20502;-65
2023/03/10 11:43:00;;;;;;;3.20;0.80;;;;;;;;;;5002613;28;20046;-62
2023/03/10 11:45:52;;;;;;;2.42;1.20;;;;;;;;;;5006923;28;20075;-64
2023/03/10 11:48:18;;;;;;;5.22;1.20;;;;;;;;;;5002138;28;20053;-64
2023/03/10 11:50:51;;;;;;;3.97;1.00;;;;;;;;;;5007447;28;20068;-66
2023/03/10 11:53:36;;;;;;;2.35;1.08;;;;;;;;;;5000686;28;20041;-65
2023/03/10 11:56:03;;;;;;;7.18;1.30;;;;;;;;;;5008185;28;20100;-64
2023/03/10 11:58:48;;;;;;;5.40;1.50;;;;;;;;;;5002235;28;20044;-63
2023/03/10 12:01:16;;;;;;;4.18;1.65;;;;;;;;;;5005782;28;20084;-63
2023/03/10 12:03:53;;;;;;;5.95;1.08;;;;;;;;;;5001665;28;20045;-63
2023/03/10 12:06:45;;;;;;;4.43;1.23;;;;;;;;;;5006437;28;20042;-65
2023/03/10 12:09:37;;;;;;;4.82;1.40;;;;;;;;;;5001854;28;20037;-64
2023/03/10 12:12:04;;;;;;;3.10;1.20;;;;;;;;;;5003448;28;20096;-61
2023/03/10 12:14:31;;;;;;;5.35;1.20;;;;;;;;;;5006339;28;20398;-65
2023/03/10 12:16:58;;;;;;;2.97;0.75;;;;;;;;;;5007766;28;20467;-63
2023/03/10 12:19:24;;;;;;;4.90;1.02;;;;;;;;;;5023000;28;20046;-65
2023/03/10 12:21:50;;;;;;;;;;;;;;;;;;5009143;28;20379;-63
2023/03/10 12:24:34;;;;;;;4.63;1.00;;;;;;;;;;5007040;28;19926;-65
2023/03/10 12:27:01;;;;;;;7.28;2.97;;;;;;;;;;5007229;28;20129;-65
2023/03/10 12:29:43;;;;;;;8.55;1.77;;;;;;;;;;5003629;28;20251;-64
2023/03/10 12:32:27;;;;;;;4.45;1.08;;;;;;;;;;5003704;28;20057;-64
2023/03/10 12:35:20;;;;;;;4.22;0.75;;;;;;;;;;5003810;28;20049;-65
2023/03/10 12:37:46;;;;;;;5.72;1.00;;;;;;;;;;4987550;28;20073;-61
2023/03/10 12:40:44;;;;;;;5.55;1.20;;;;;;;;;;5011117;28;20038;-64
2023/03/10 12:43:33;;;;;;;4.95;0.77;;;;;;;;;;4982580;28;20113;-65
2023/03/10 12:46:01;;;;;;;4.18;0.90;;;;;;;;;;5008549;28;20072;-64
2023/03/10 12:48:28;;;;;;;3.88;1.27;;;;;;;;;;5006773;28;20523;-63
2023/03/10 12:50:57;;;;;;;4.65;1.00;;;;;;;;;;5011920;28;20038;-64
2023/03/10 12:53:23;;;;;;;3.20;0.95;;;;;;;;;;5006604;28;20038;-65
2023/03/10 12:55:49;;;;;;;;;;;;;;;;;;5010306;28;20503;-65
2023/03/10 12:58:20;;;;;;;5.72;1.27;;;;;;;;;;5007081;28;19925;-63
2023/03/10 13:00:58;;;;;;;4.35;0.95;;;;;;;;;;5010153;28;20048;-65
2023/03/10 13:03:27;;;;;;;7.05;1.20;;;;;;;;;;5002280;28;20141;-64
2023/03/10 13:05:59;;;;;;;9.73;1.70;;;;;;;;;;5010549;28;20121;-66
2023/03/10 13:08:44;;;;;;;4.03;1.40;;;;;;;;;;5004287;28;20096;-66
2023/03/10 13:11:31;;;;;;;6.50;1.45;;;;;;;;;;5010627;28;20478;-65
2023/03/10 13:13:59;;;;;;;9.70;1.63;;;;;;;;;;5004914;28;20124;-64
2023/03/10 13:16:25;;;;;;;4.93;1.30;;;;;;;;;;5009325;28;20517;-63
2023/03/10 13:18:51;;;;;;;;;;;;;;;;;;5016003;28;20033;-64
2023/03/10 13:21:30;;;;;;;8.02;1.30;;;;;;;;;;5016886;28;19944;-59
2023/03/10 13:23:57;;;;;;;7.80;1.60;;;;;;;;;;5012071;28;20126;-63
2023/03/10 13:26:24;;;;;;;5.03;1.55;;;;;;;;;;5016208;28;20064;-63
2023/03/10 13:29:00;;;;;;;3.95;1.15;;;;;;;;;;5012135;28;20064;-62
2023/03/10 13:31:26;;;;;;;;;;;;;;;;;;5011893;28;20041;-64
2023/03/10 13:33:53;;;;;;;4.53;1.17;;;;;;;;;;5038118;28;19925;-63
2023/03/10 13:36:21;;;;;;;8.20;2.47;;;;;;;;;;5013333;28;20049;-63
2023/03/10 13:38:48;;;;;;;3.15;1.33;;;;;;;;;;5011140;28;20038;-64
2023/03/10 13:41:15;;;;;;;4.90;1.50;;;;;;;;;;5010494;28;20072;-60
2023/03/10 13:43:47;;;;;;;6.75;1.10;;;;;;;;;;5006311;28;20045;-62
2023/03/10 13:46:30;;;;;;;5.88;1.38;;;;;;;;;;5008394;28;20053;-60
2023/03/10 13:49:05;;;;;;;6.70;0.98;;;;;;;;;;5004639;28;20099;-62
2023/03/10 13:51:35;;;;;;;3.90;0.90;;;;;;;;;;5022266;28;20045;-64
2023/03/10 13:54:21;;;;;;;4.82;1.10;;;;;;;;;;5005501;28;20042;-64
2023/03/10 13:56:49;;;;;;;3.83;1.00;;;;;;;;;;5005752;28;20510;-65
2023/03/10 13:59:19;;;;;;;4.07;0.60;;;;;;;;;;5005381;28;20042;-65
2023/03/10 14:01:52;;;;;;;7.45;1.33;;;;;;;;;;5007718;28;20037;-64
2023/03/10 14:04:37;;;;;;;6.03;1.05;;;;;;;;;;5010617;28;20048;-62
2023/03/10 14:07:16;;;;;;;5.88;1.00;;;;;;;;;;5003937;28;20434;-64
2023/03/10 14:09:42;;;;;;;7.32;1.65;;;;;;;;;;5008980;28;20072;-64
2023/03/10 14:12:08;;;;;;;;;;;;;;;;;;5009009;28;20041;-64
2023/03/10 14:14:37;;;;;;;5.90;1.08;;;;;;;;;;5005701;28;19917;-64
2023/03/10 14:17:07;;;;;;;2.88;0.68;;;;;;;;;;5007739;28;20057;-61
2023/03/10 14:19:37;;;;;;;4.70;0.90;;;;;;;;;;5008534;28;20478;-64
2023/03/10 14:22:20;;;;;;;3.08;0.80;;;;;;;;;;5009177;28;21272;-64
2023/03/10 14:24:46;;;;;;;2.63;0.57;;;;;;;;;;5009527;28;20433;-64
2023/03/10 14:27:12;;;;;;;2.63;0.52;;;;;;;;;;5006000;28;20042;-62
2023/03/10 14:29:38;;;;;;;;;;;;;;;;;;5002664;28;20046;-63
2023/03/10 14:32:04;;;;;;;5.45;0.50;;;;;;;;;;5007700;28;19925;-58
2023/03/10 14:34:30;;;;;;;5.13;0.70;;;;;;;;;;5006251;28;20125;-60